VTSR

Ranong Airport

Thailand
TAF VTSR 210500Z 2106/2206 24006KT 9999 FEW025 TEMPO 2106/2112 24015G30KT 5000 RA FEW015CB SCT025 BKN100 BECMG 2115/2117 12004KT 8000 BECMG 2124/2202 VRB02KT 9999
Issued Valid From Valid To
Jun-21 @ 05:00 UTC
(5 hours ago)
Jun-21 @ 06:00 UTC
(4 hours ago)
Jun-22 @ 06:00 UTC
(in 20 hours)
Jun-21 @ 06:00 to Jun-21 @ 15:00
TAF VTSR 210500Z 2106/2206 24006KT 9999 FEW025
Wind Visibility Clouds
240° at 6 knots 10,000+ meters
  • Few at 2,500' AGL
Temporary Jun-21 @ 06:00 to Jun-21 @ 12:00
TEMPO 2106/2112 24015G30KT 5000 RA FEW015CB SCT025 BKN100
Wind Visibility Clouds Conditions
240° at 15 knots
 Gusting to 30 knots
5,005 meters
  • Few at 1,500' AGL
  • Scattered at 2,500' AGL
  • Broken at 10,000' AGL
  • Rain
Becoming Jun-21 @ 15:00 to Jun-22 @ 00:00
BECMG 2115/2117 12004KT 8000
Wind Visibility Clouds
120° at 4 knots 7,998 meters
  • Few at 2,500' AGL
Becoming Jun-22 @ 00:00 to Jun-22 @ 06:00
Wind Visibility Clouds
Variable at 2 knots 10,000+ meters
  • Few at 2,500' AGL
TAF VTSR 210500Z 2106/2206 24006KT 9999 FEW025 TEMPO 2106/2112 24015G30KT 5000 RA FEW015CB SCT025 BKN100 BECMG 2115/2117 12004KT 8000 BECMG 2124/2202 VRB02KT 9999
Issued Jun-21 @ 05:00 UTC
(5 hours ago)
Valid From Jun-21 @ 06:00 UTC
(4 hours ago)
Valid To Jun-22 @ 06:00 UTC
(in 20 hours)
Jun-21 @ 06:00 - Jun-21 @ 15:00
Wind Visibility
240° at 6 knots 10,000+ meters
Clouds
  • Few at 2,500' AGL
Temporary Jun-21 @ 06:00 - Jun-21 @ 12:00
Wind Visibility
240° at 15 knots
 Gusting to 30 knots
5,005 meters
Clouds
  • Few at 1,500' AGL
  • Scattered at 2,500' AGL
  • Broken at 10,000' AGL
Conditions
  • Rain
Becoming Jun-21 @ 15:00 - Jun-22 @ 00:00
Wind Visibility
120° at 4 knots 7,998 meters
Clouds
  • Few at 2,500' AGL
Becoming Jun-22 @ 00:00 - Jun-22 @ 06:00
Wind Visibility
Variable at 2 knots 10,000+ meters
Clouds
  • Few at 2,500' AGL